Time;durP1;ratioP1;P1;durP2;ratioP2;P2;SDS_P1;SDS_P2;PMS_P1;PMS_P2;Temp;Humidity;BMP_temperature;BMP_pressure;BME280_temperature;BME280_humidity;BME280_pressure;Samples;Min_cycle;Max_cycle;Signal;HPM_P1;HPM_P2
2021/09/06 00:00:24;;;;;;;7.25;4.53;;;12.80;99.90;;;;;;7372248;19;20039;-68
2021/09/06 00:02:49;;;;;;;9.43;5.15;;;12.80;99.90;;;;;;7375008;19;20018;-68
2021/09/06 00:05:15;;;;;;;7.30;4.47;;;12.80;99.90;;;;;;7374422;19;20767;-69
2021/09/06 00:07:42;;;;;;;9.30;4.20;;;12.80;99.90;;;;;;7373354;19;20018;-69
2021/09/06 00:10:07;;;;;;;7.00;4.50;;;12.80;99.90;;;;;;7375132;19;20014;-68
2021/09/06 00:12:33;;;;;;;8.20;5.05;;;12.70;99.90;;;;;;7372747;19;20025;-68
2021/09/06 00:14:58;;;;;;;9.25;4.88;;;12.80;99.90;;;;;;7373974;19;20015;-68
2021/09/06 00:17:24;;;;;;;7.30;4.15;;;12.60;99.90;;;;;;7371742;19;20058;-68
2021/09/06 00:19:50;;;;;;;7.55;4.53;;;12.60;99.90;;;;;;7372634;19;20028;-68
2021/09/06 00:22:15;;;;;;;7.80;4.47;;;12.60;99.90;;;;;;7369235;19;20023;-68
2021/09/06 00:24:41;;;;;;;11.63;4.28;;;12.60;99.90;;;;;;7374493;19;20018;-68
2021/09/06 00:27:06;;;;;;;13.70;4.40;;;12.60;99.90;;;;;;7373412;19;20786;-68
2021/09/06 00:29:32;;;;;;;8.43;4.00;;;12.50;99.90;;;;;;7371653;19;20030;-68
2021/09/06 00:32:02;;;;;;;8.45;4.30;;;12.50;99.90;;;;;;7375057;19;20631;-68
2021/09/06 00:34:28;;;;;;;9.98;4.45;;;12.50;99.90;;;;;;7375344;19;20024;-69
2021/09/06 00:36:53;;;;;;;7.50;4.22;;;12.50;99.90;;;;;;7373785;19;20690;-68
2021/09/06 00:39:20;;;;;;;6.55;3.97;;;12.50;99.90;;;;;;7376011;19;20025;-68
2021/09/06 00:41:45;;;;;;;7.57;4.00;;;12.40;99.90;;;;;;7373831;19;20023;-68
2021/09/06 00:44:11;;;;;;;9.55;4.10;;;12.40;99.90;;;;;;7373019;19;20022;-69
2021/09/06 00:46:36;;;;;;;6.57;4.05;;;12.40;99.90;;;;;;7372243;19;20368;-68
2021/09/06 00:49:02;;;;;;;8.60;3.58;;;12.30;99.90;;;;;;7371489;19;20727;-68
2021/09/06 00:51:27;;;;;;;6.80;4.25;;;12.30;99.90;;;;;;7369779;19;20019;-68
2021/09/06 00:53:53;;;;;;;8.20;4.40;;;12.20;99.90;;;;;;7374536;19;20097;-68
2021/09/06 00:56:19;;;;;;;6.43;3.80;;;12.20;99.90;;;;;;7369244;19;20037;-68
2021/09/06 00:58:45;;;;;;;11.55;4.70;;;12.10;99.90;;;;;;7369384;19;20027;-68
2021/09/06 01:01:11;;;;;;;8.80;4.00;;;12.10;99.90;;;;;;7371692;19;20068;-68
2021/09/06 01:03:36;;;;;;;7.90;4.15;;;12.10;99.90;;;;;;7375931;19;20898;-68
2021/09/06 01:34:54;;;;;;;8.75;3.72;;;11.70;99.90;;;;;;7380433;19;20728;-68
2021/09/06 01:37:19;;;;;;;6.80;3.97;;;11.70;99.90;;;;;;7375609;19;20018;-68
2021/09/06 01:39:51;;;;;;;8.75;3.22;;;11.60;99.90;;;;;;7380287;19;20035;-68
2021/09/06 01:42:17;;;;;;;6.25;3.40;;;11.60;99.90;;;;;;7375432;19;20502;-68
2021/09/06 01:44:43;;;;;;;8.13;3.70;;;11.50;99.90;;;;;;7377600;19;20035;-68
2021/09/06 01:47:13;;;;;;;5.22;3.75;;;11.40;99.90;;;;;;7377124;19;20022;-68
2021/09/06 01:49:39;;;;;;;7.68;4.22;;;11.50;99.90;;;;;;7376202;19;20026;-68
2021/09/06 01:52:05;;;;;;;8.68;4.00;;;11.50;99.90;;;;;;7376025;19;20786;-68
2021/09/06 01:54:31;;;;;;;8.40;3.85;;;11.40;99.90;;;;;;7376700;19;20025;-68
2021/09/06 01:57:00;;;;;;;7.93;3.95;;;11.40;99.90;;;;;;7376697;19;20365;-68
2021/09/06 01:59:26;;;;;;;5.68;3.50;;;11.40;99.90;;;;;;7375970;19;20022;-68
2021/09/06 02:01:52;;;;;;;8.57;3.42;;;11.30;99.90;;;;;;7376112;19;20045;-68
2021/09/06 02:04:18;;;;;;;9.35;4.28;;;11.30;99.90;;;;;;7376922;19;20043;-68
2021/09/06 02:06:45;;;;;;;9.68;3.90;;;11.30;99.90;;;;;;7373764;19;20010;-68
2021/09/06 02:09:11;;;;;;;6.50;3.50;;;11.20;99.90;;;;;;7375688;19;20044;-68
2021/09/06 02:11:37;;;;;;;14.02;4.28;;;11.30;99.90;;;;;;7374655;19;20455;-68
2021/09/06 02:14:05;;;;;;;8.88;3.90;;;11.20;99.90;;;;;;7375938;19;20090;-68
2021/09/06 02:16:32;;;;;;;6.95;4.20;;;11.20;99.90;;;;;;7373846;19;20090;-68
2021/09/06 02:18:59;;;;;;;6.10;3.78;;;11.10;99.90;;;;;;7377157;19;20018;-68
2021/09/06 02:21:24;;;;;;;10.20;3.72;;;11.10;99.90;;;;;;7373985;19;20053;-67
2021/09/06 02:23:59;;;;;;;8.75;4.28;;;11.00;99.90;;;;;;7374359;19;20018;-69
2021/09/06 02:26:25;;;;;;;8.10;3.95;;;10.90;99.90;;;;;;7375727;19;20018;-68
2021/09/06 02:28:51;;;;;;;8.13;4.05;;;10.80;99.90;;;;;;7371153;19;20018;-68
2021/09/06 02:31:18;;;;;;;5.43;3.88;;;10.80;99.90;;;;;;7376084;19;20634;-68
2021/09/06 02:34:16;;;;;;;11.02;3.67;;;10.70;99.90;;;;;;7373968;19;20018;-68
2021/09/06 02:36:43;;;;;;;8.52;4.45;;;10.70;99.90;;;;;;7374737;19;20014;-68
2021/09/06 02:39:09;;;;;;;8.55;3.75;;;10.60;99.90;;;;;;7372585;19;20048;-68
2021/09/06 02:41:35;;;;;;;10.52;4.13;;;10.60;99.90;;;;;;7375356;19;20662;-68
2021/09/06 02:44:00;;;;;;;6.78;3.83;;;10.60;99.90;;;;;;7377737;19;20018;-68
2021/09/06 02:46:26;;;;;;;7.90;4.10;;;10.50;99.90;;;;;;7374048;19;20023;-68
2021/09/06 02:48:53;;;;;;;7.13;3.97;;;10.50;99.90;;;;;;7375302;19;20018;-68
2021/09/06 02:51:20;;;;;;;10.55;4.75;;;10.50;99.90;;;;;;7374040;19;20018;-68
2021/09/06 02:53:46;;;;;;;7.07;3.83;;;10.40;99.90;;;;;;7376093;19;20043;-68
2021/09/06 02:56:12;;;;;;;6.85;4.13;;;10.40;99.90;;;;;;7376214;19;20018;-68
2021/09/06 02:58:41;;;;;;;8.70;4.25;;;10.30;99.90;;;;;;7373642;19;20010;-68
2021/09/06 03:01:07;;;;;;;7.88;4.25;;;10.30;99.90;;;;;;7375286;19;20097;-68
2021/09/06 03:03:32;;;;;;;8.00;4.10;;;10.30;99.90;;;;;;7373820;19;20027;-68
2021/09/06 03:05:59;;;;;;;11.38;3.83;;;10.30;99.90;;;;;;7374816;19;20021;-68
2021/09/06 03:08:25;;;;;;;6.38;4.45;;;10.30;99.90;;;;;;7372337;19;20015;-68
2021/09/06 03:10:51;;;;;;;6.75;4.28;;;10.30;99.90;;;;;;7375486;19;20025;-68
2021/09/06 03:13:18;;;;;;;7.90;4.40;;;10.20;99.90;;;;;;7371769;19;20026;-68
2021/09/06 03:15:46;;;;;;;6.95;3.78;;;10.20;99.90;;;;;;7375394;19;20502;-68
2021/09/06 03:18:11;;;;;;;8.38;4.10;;;10.10;99.90;;;;;;7376389;19;20018;-68
2021/09/06 03:20:57;;;;;;;;;;;10.10;99.90;;;;;;7372925;19;20018;-68
2021/09/06 03:23:23;;;;;;;;;;;10.10;99.90;;;;;;7374418;19;19923;-68
2021/09/06 03:25:48;;;;;;;5.45;3.83;;;10.10;99.90;;;;;;7371011;19;19921;-68
2021/09/06 03:28:14;;;;;;;8.55;3.90;;;10.00;99.90;;;;;;7370596;19;20014;-68
2021/09/06 03:30:42;;;;;;;10.50;4.22;;;10.10;99.90;;;;;;7374774;19;20026;-68
2021/09/06 03:33:13;;;;;;;5.38;3.63;;;10.00;99.90;;;;;;7372895;19;20014;-68
2021/09/06 03:35:42;;;;;;;11.10;4.32;;;10.00;99.90;;;;;;7373967;19;20787;-68
2021/09/06 03:38:09;;;;;;;9.43;5.18;;;10.10;99.90;;;;;;7371959;19;20086;-68
2021/09/06 03:40:34;;;;;;;8.10;4.60;;;10.10;99.90;;;;;;7373560;19;20476;-68
2021/09/06 03:43:00;;;;;;;9.57;4.97;;;10.10;99.90;;;;;;7370241;19;20154;-68
2021/09/06 03:45:26;;;;;;;8.43;4.65;;;10.00;99.90;;;;;;7373941;19;20078;-68
2021/09/06 03:47:53;;;;;;;7.38;4.30;;;10.10;99.90;;;;;;7371026;19;20014;-68
2021/09/06 03:50:19;;;;;;;10.52;4.63;;;10.00;99.90;;;;;;7374097;19;20043;-68
2021/09/06 03:52:45;;;;;;;7.55;4.03;;;10.00;99.90;;;;;;7372597;19;20462;-68
2021/09/06 03:55:11;;;;;;;8.63;4.55;;;10.00;99.90;;;;;;7372152;19;20042;-68
2021/09/06 03:57:37;;;;;;;10.77;4.80;;;10.00;99.90;;;;;;7372772;19;20019;-68
2021/09/06 04:00:03;;;;;;;7.32;4.55;;;10.00;99.90;;;;;;7371784;19;20042;-68
2021/09/06 04:02:32;;;;;;;14.70;4.85;;;9.90;99.90;;;;;;7373998;19;20481;-68
2021/09/06 04:04:59;;;;;;;15.00;4.32;;;9.90;99.90;;;;;;7371447;19;20086;-68
2021/09/06 04:07:25;;;;;;;7.05;4.22;;;9.90;99.90;;;;;;7371798;19;20011;-68
2021/09/06 04:09:55;;;;;;;9.48;4.90;;;9.80;99.90;;;;;;7370801;19;20913;-68
2021/09/06 04:12:21;;;;;;;11.30;4.90;;;9.80;99.90;;;;;;7370953;19;20104;-68
2021/09/06 04:14:47;;;;;;;8.77;4.50;;;9.80;99.90;;;;;;7372977;19;20788;-68
2021/09/06 04:17:13;;;;;;;11.25;5.15;;;9.80;99.90;;;;;;7369176;19;20010;-68
2021/09/06 04:19:42;;;;;;;11.02;4.78;;;9.80;99.90;;;;;;7371034;19;20511;-68
2021/09/06 04:22:08;;;;;;;6.60;4.47;;;9.80;99.90;;;;;;7369110;19;20014;-68
2021/09/06 04:24:35;;;;;;;9.23;4.80;;;9.80;99.90;;;;;;7373149;19;20018;-68
2021/09/06 04:27:02;;;;;;;10.25;4.82;;;9.70;99.90;;;;;;7368199;19;20022;-68
2021/09/06 04:29:27;;;;;;;8.93;4.97;;;9.70;99.90;;;;;;7371445;19;20019;-68
2021/09/06 04:31:55;;;;;;;11.85;5.03;;;9.80;99.90;;;;;;7370585;19;20014;-68
2021/09/06 04:34:22;;;;;;;7.03;4.80;;;;;;;;;;7369314;19;20010;-68
2021/09/06 04:36:48;;;;;;;8.88;4.88;;;9.80;99.90;;;;;;7371132;19;20018;-68
2021/09/06 04:39:14;;;;;;;8.55;5.10;;;9.80;99.90;;;;;;7368614;19;20018;-68
2021/09/06 04:41:44;;;;;;;11.07;5.18;;;9.80;99.90;;;;;;7369847;19;20026;-68
2021/09/06 04:44:10;;;;;;;8.45;4.72;;;9.80;99.90;;;;;;7369355;19;20018;-68
2021/09/06 04:46:36;;;;;;;10.95;5.10;;;9.80;99.90;;;;;;7370842;19;20031;-68
2021/09/06 04:49:02;;;;;;;8.43;5.30;;;9.80;99.90;;;;;;7369722;19;20018;-68
2021/09/06 04:51:27;;;;;;;9.10;5.10;;;9.80;99.90;;;;;;7370496;19;20019;-68
2021/09/06 04:53:54;;;;;;;8.10;4.63;;;9.80;99.90;;;;;;7373050;19;20526;-68
2021/09/06 04:56:25;;;;;;;13.43;5.03;;;9.80;99.90;;;;;;7371126;19;20029;-68
2021/09/06 04:58:54;;;;;;;13.27;5.28;;;9.90;99.90;;;;;;7371640;19;20010;-68
2021/09/06 05:01:21;;;;;;;9.57;5.32;;;9.90;99.90;;;;;;7370887;19;20356;-68
2021/09/06 05:03:47;;;;;;;12.50;5.75;;;9.90;99.90;;;;;;7371828;19;20017;-68
2021/09/06 05:06:13;;;;;;;9.05;5.47;;;9.90;99.90;;;;;;7372879;19;20018;-69
2021/09/06 05:08:38;;;;;;;14.93;6.05;;;9.90;99.90;;;;;;7371460;19;20025;-68
2021/09/06 05:11:04;;;;;;;9.48;5.68;;;10.00;99.90;;;;;;7371452;19;20022;-68
2021/09/06 05:13:32;;;;;;;8.90;5.50;;;10.00;99.90;;;;;;7373464;19;20115;-68
2021/09/06 05:15:58;;;;;;;13.90;5.90;;;10.00;99.90;;;;;;7372526;19;20090;-68
2021/09/06 05:18:24;;;;;;;11.40;6.50;;;10.10;99.90;;;;;;7368308;19;20436;-68
2021/09/06 05:20:50;;;;;;;17.80;7.03;;;10.10;99.90;;;;;;7371394;19;20018;-68
2021/09/06 05:23:16;;;;;;;15.55;6.60;;;10.10;99.90;;;;;;7370788;19;20924;-68
2021/09/06 05:25:42;;;;;;;15.98;6.70;;;10.10;99.90;;;;;;7371152;19;20014;-68
2021/09/06 05:28:07;;;;;;;12.25;6.07;;;10.10;99.90;;;;;;7370406;19;20482;-68
2021/09/06 05:30:33;;;;;;;14.57;7.07;;;10.20;99.90;;;;;;7367304;19;20015;-68
2021/09/06 05:32:59;;;;;;;12.43;6.47;;;10.20;99.90;;;;;;7366656;19;20074;-68
2021/09/06 05:35:25;;;;;;;10.30;6.38;;;10.20;99.90;;;;;;7368776;19;20018;-68
2021/09/06 05:37:52;;;;;;;11.23;5.95;;;10.30;99.90;;;;;;7369174;19;20686;-68
2021/09/06 05:40:28;;;;;;;13.48;5.95;;;10.40;99.90;;;;;;7367666;19;20019;-68
2021/09/06 05:42:55;;;;;;;9.40;5.68;;;10.40;99.90;;;;;;7367296;19;20031;-68
2021/09/06 05:45:21;;;;;;;11.20;5.72;;;10.60;99.90;;;;;;7370950;19;20011;-68
2021/09/06 05:47:47;;;;;;;10.65;5.75;;;10.70;99.90;;;;;;7368215;19;20017;-68
2021/09/06 05:50:17;;;;;;;13.63;5.80;;;10.70;99.90;;;;;;7375069;19;20015;-68
2021/09/06 05:53:03;;;;;;;11.27;5.47;;;10.70;99.90;;;;;;7376357;19;20060;-68
2021/09/06 05:55:29;;;;;;;10.30;4.97;;;10.80;99.90;;;;;;7377329;19;20029;-68
2021/09/06 05:57:54;;;;;;;9.07;5.03;;;11.10;99.90;;;;;;7373922;19;20784;-67
2021/09/06 06:00:21;;;;;;;10.65;5.32;;;11.00;99.90;;;;;;7376555;19;20023;-67
2021/09/06 06:02:48;;;;;;;10.30;5.65;;;11.20;99.90;;;;;;7374397;19;20030;-67
2021/09/06 06:05:14;;;;;;;12.63;6.20;;;11.20;99.90;;;;;;7376380;19;20014;-68
2021/09/06 06:07:40;;;;;;;15.25;8.38;;;11.30;99.90;;;;;;7375577;19;20037;-68
2021/09/06 06:10:05;;;;;;;9.80;5.72;;;11.40;99.90;;;;;;7375811;19;20026;-68
2021/09/06 06:12:33;;;;;;;11.00;5.88;;;11.50;99.90;;;;;;7375867;19;20033;-68
2021/09/06 06:14:59;;;;;;;11.68;4.72;;;11.60;99.90;;;;;;7375993;19;20018;-68
2021/09/06 06:17:24;;;;;;;11.30;5.40;;;11.80;99.90;;;;;;7375920;19;20022;-68
2021/09/06 06:19:50;;;;;;;13.98;4.72;;;11.90;99.90;;;;;;7376535;19;20486;-68
2021/09/06 06:22:41;;;;;;;11.48;5.18;;;12.00;99.90;;;;;;7374937;19;20495;-68
2021/09/06 06:25:18;;;;;;;8.93;5.75;;;12.10;99.90;;;;;;7375464;19;20019;-68
2021/09/06 06:27:52;;;;;;;17.55;10.13;;;12.20;99.90;;;;;;7372262;19;20018;-68
2021/09/06 06:30:18;;;;;;;7.88;4.63;;;12.30;99.90;;;;;;7377009;19;20026;-68
2021/09/06 06:32:44;;;;;;;13.43;4.68;;;12.40;99.90;;;;;;7371444;19;20041;-68
2021/09/06 06:35:33;;;;;;;11.27;4.35;;;12.50;99.90;;;;;;7374532;19;20028;-72
2021/09/06 06:37:58;;;;;;;9.45;4.10;;;12.60;99.90;;;;;;7373616;19;20018;-68
2021/09/06 06:40:24;;;;;;;13.32;4.28;;;12.70;99.90;;;;;;7375370;19;20529;-69
2021/09/06 06:42:53;;;;;;;10.85;4.38;;;12.80;99.90;;;;;;7371692;19;20047;-69
2021/09/06 06:45:19;;;;;;;6.63;3.92;;;12.90;99.90;;;;;;7376294;19;20043;-70
2021/09/06 06:47:45;;;;;;;8.48;4.18;;;13.00;99.90;;;;;;7374092;19;20014;-69
2021/09/06 06:50:13;;;;;;;9.20;4.10;;;13.10;99.90;;;;;;7373567;19;20030;-69
2021/09/06 06:52:38;;;;;;;12.18;5.22;;;13.20;99.90;;;;;;7372172;19;20018;-69
2021/09/06 06:55:05;;;;;;;9.95;3.75;;;13.30;99.90;;;;;;7372208;19;20019;-69
2021/09/06 06:57:31;;;;;;;8.38;4.75;;;13.40;99.90;;;;;;7374351;19;20614;-69
2021/09/06 06:59:57;;;;;;;7.18;4.10;;;13.50;99.90;;;;;;7374282;19;20026;-68
2021/09/06 07:02:22;;;;;;;9.70;3.92;;;13.70;99.90;;;;;;7369363;19;20086;-69
2021/09/06 07:04:48;;;;;;;8.35;3.83;;;13.70;99.90;;;;;;7374761;19;20029;-68
2021/09/06 07:07:13;;;;;;;9.75;3.88;;;13.70;99.90;;;;;;7372148;19;20046;-68
2021/09/06 07:09:41;;;;;;;6.75;4.22;;;13.80;99.90;;;;;;7373943;19;20457;-69
2021/09/06 07:12:07;;;;;;;12.07;5.15;;;14.00;99.90;;;;;;7370264;19;20598;-69
2021/09/06 07:14:34;;;;;;;8.50;3.58;;;14.10;99.90;;;;;;7374574;19;20021;-69
2021/09/06 07:17:02;;;;;;;8.63;3.85;;;14.30;99.90;;;;;;7372958;19;20018;-69
2021/09/06 07:19:27;;;;;;;9.07;4.20;;;14.30;99.90;;;;;;7369134;19;20021;-69
2021/09/06 07:21:53;;;;;;;7.50;3.72;;;14.30;99.90;;;;;;7371769;19;20034;-69
2021/09/06 07:24:19;;;;;;;8.10;4.20;;;14.40;99.90;;;;;;7373243;19;20014;-69
2021/09/06 07:26:45;;;;;;;6.32;3.67;;;14.50;99.90;;;;;;7374609;19;20018;-69
2021/09/06 07:29:11;;;;;;;9.35;4.18;;;14.70;99.90;;;;;;7370564;19;20014;-69
2021/09/06 07:31:37;;;;;;;6.30;3.78;;;14.80;99.90;;;;;;7372474;19;20018;-69
2021/09/06 07:34:05;;;;;;;7.65;3.60;;;15.00;99.90;;;;;;7374124;19;20011;-69
2021/09/06 07:36:32;;;;;;;10.13;3.90;;;15.00;99.90;;;;;;7373505;19;20504;-69
2021/09/06 07:38:59;;;;;;;8.10;3.60;;;15.20;99.90;;;;;;7372625;19;20026;-68
2021/09/06 07:41:26;;;;;;;7.57;3.85;;;15.30;99.90;;;;;;7370536;19;20043;-68
2021/09/06 07:43:52;;;;;;;5.25;3.05;;;15.40;99.90;;;;;;7373311;19;20048;-67
2021/09/06 07:46:17;;;;;;;9.35;4.53;;;15.70;99.90;;;;;;7371053;19;20003;-68
2021/09/06 07:48:44;;;;;;;7.55;3.95;;;15.60;99.90;;;;;;7372040;19;20052;-68
2021/09/06 07:51:09;;;;;;;7.85;3.97;;;15.90;99.90;;;;;;7372569;19;20534;-72
2021/09/06 07:53:35;;;;;;;9.60;4.20;;;15.90;99.90;;;;;;7372031;19;20706;-72
2021/09/06 07:56:01;;;;;;;7.35;3.63;;;16.10;99.90;;;;;;7374252;19;20047;-72
2021/09/06 07:58:30;;;;;;;8.25;3.60;;;16.50;99.90;;;;;;7370584;19;20015;-72
2021/09/06 08:00:55;;;;;;;11.38;5.35;;;16.60;99.90;;;;;;7371866;19;20121;-72
2021/09/06 08:03:22;;;;;;;7.22;3.58;;;17.00;99.90;;;;;;7369982;19;20043;-72
2021/09/06 08:05:48;;;;;;;14.68;6.85;;;17.20;99.90;;;;;;7374207;19;20120;-71
2021/09/06 08:08:15;;;;;;;16.02;6.78;;;17.30;99.90;;;;;;7371866;19;20018;-72
2021/09/06 08:10:41;;;;;;;13.82;4.20;;;17.50;99.90;;;;;;7371547;19;20069;-72
2021/09/06 08:13:11;;;;;;;7.07;4.10;;;17.80;99.90;;;;;;7369866;19;20490;-70
2021/09/06 08:15:39;;;;;;;11.95;4.15;;;18.10;99.90;;;;;;7371403;19;20557;-69
2021/09/06 08:18:04;;;;;;;6.72;3.30;;;18.50;99.90;;;;;;7372560;19;20547;-69
2021/09/06 08:20:32;;;;;;;8.18;4.60;;;18.40;99.90;;;;;;7370339;19;20051;-70
2021/09/06 08:22:57;;;;;;;6.70;3.33;;;18.40;99.90;;;;;;7368832;19;20014;-70
2021/09/06 08:25:23;;;;;;;7.80;4.22;;;18.50;99.90;;;;;;7370358;19;20050;-70
2021/09/06 08:27:49;;;;;;;9.35;3.80;;;18.80;99.90;;;;;;7370918;19;20388;-72
2021/09/06 08:30:18;;;;;;;16.80;4.72;;;19.00;99.90;;;;;;7370565;19;20039;-71
2021/09/06 08:32:44;;;;;;;13.35;4.57;;;19.30;99.90;;;;;;7368237;19;20017;-69
2021/09/06 08:35:10;;;;;;;18.15;10.38;;;19.40;99.90;;;;;;7370439;19;20086;-70
2021/09/06 08:37:37;;;;;;;13.98;6.25;;;19.60;99.90;;;;;;7367171;19;20018;-70
2021/09/06 08:40:03;;;;;;;7.05;4.28;;;19.80;99.90;;;;;;7370171;19;20011;-70
2021/09/06 08:42:29;;;;;;;11.02;5.03;;;20.10;99.90;;;;;;7368130;19;20018;-70
2021/09/06 08:44:55;;;;;;;8.13;4.70;;;20.20;99.90;;;;;;7371498;19;20042;-73
2021/09/06 08:47:21;;;;;;;7.47;4.15;;;20.30;99.90;;;;;;7372509;19;20805;-70
2021/09/06 08:49:46;;;;;;;8.18;3.78;;;20.30;99.80;;;;;;7369834;19;20718;-70
2021/09/06 08:52:12;;;;;;;11.15;4.38;;;20.30;99.90;;;;;;7369019;19;20037;-69
2021/09/06 08:54:38;;;;;;;9.50;4.45;;;20.20;99.90;;;;;;7369062;19;20017;-70
2021/09/06 08:57:03;;;;;;;9.43;4.95;;;20.30;99.90;;;;;;7371068;19;20022;-70
2021/09/06 08:59:29;;;;;;;11.52;4.72;;;20.50;99.90;;;;;;7369043;19;20995;-70
2021/09/06 09:02:07;;;;;;;6.97;3.95;;;20.70;99.90;;;;;;7367153;19;20015;-70
2021/09/06 09:05:07;;;;;;;15.52;4.50;;;20.60;99.90;;;;;;7367658;19;20033;-70
2021/09/06 09:08:03;;;;;;;10.45;4.00;;;20.80;99.90;;;;;;7370722;19;20045;-71
2021/09/06 09:10:55;;;;;;;10.02;3.92;;;20.50;99.90;;;;;;7368956;19;20022;-71
2021/09/06 09:13:40;;;;;;;8.35;4.03;;;20.50;99.90;;;;;;7376395;19;20031;-70
2021/09/06 09:16:26;;;;;;;9.10;4.20;;;20.60;99.90;;;;;;7374065;19;20030;-71
2021/09/06 09:19:10;;;;;;;6.82;4.10;;;20.70;99.50;;;;;;7374918;19;20025;-71
2021/09/06 09:22:04;;;;;;;6.82;3.70;;;20.90;99.30;;;;;;7365855;19;20017;-69
2021/09/06 09:24:43;;;;;;;9.15;4.95;;;20.90;99.90;;;;;;7373251;19;20014;-70
2021/09/06 09:27:25;;;;;;;8.50;4.07;;;21.10;99.90;;;;;;7377879;19;20014;-69
2021/09/06 09:29:56;;;;;;;9.80;4.10;;;21.20;99.90;;;;;;7375727;19;20620;-69
2021/09/06 09:32:40;;;;;;;10.18;4.10;;;21.60;99.90;;;;;;7375777;19;20361;-72
2021/09/06 09:35:16;;;;;;;11.93;4.72;;;21.70;99.40;;;;;;7375282;19;20455;-69
2021/09/06 09:37:44;;;;;;;12.48;4.22;;;21.80;99.90;;;;;;7378171;19;20022;-70
2021/09/06 09:40:12;;;;;;;8.48;3.92;;;21.80;99.30;;;;;;7379022;19;20601;-70
2021/09/06 09:42:38;;;;;;;8.93;3.60;;;22.10;98.60;;;;;;7374167;19;20101;-70
2021/09/06 09:45:04;;;;;;;6.93;4.07;;;22.50;99.90;;;;;;7377263;19;20027;-70
2021/09/06 09:47:48;;;;;;;8.48;3.67;;;22.80;98.60;;;;;;7376208;19;20029;-70
2021/09/06 09:50:16;;;;;;;7.25;4.55;;;22.90;98.80;;;;;;7377801;19;20026;-69
2021/09/06 09:52:41;;;;;;;13.50;4.45;;;22.80;97.20;;;;;;7373139;19;20829;-68
2021/09/06 09:55:08;;;;;;;9.50;4.22;;;22.20;98.60;;;;;;7376161;19;20612;-68
2021/09/06 09:57:34;;;;;;;13.00;4.90;;;22.40;98.40;;;;;;7379115;19;20018;-68
2021/09/06 10:00:00;;;;;;;11.55;4.22;;;22.40;98.60;;;;;;7377308;19;20022;-68
2021/09/06 10:02:27;;;;;;;8.25;4.35;;;22.60;98.40;;;;;;7377192;19;20131;-68
2021/09/06 10:04:54;;;;;;;9.25;3.50;;;22.70;98.60;;;;;;7379256;19;20813;-68
2021/09/06 10:07:20;;;;;;;9.98;5.30;;;22.80;98.10;;;;;;7377278;19;20026;-68
2021/09/06 10:09:46;;;;;;;13.15;6.32;;;22.90;98.00;;;;;;7380173;19;20021;-68
2021/09/06 10:12:12;;;;;;;17.20;5.97;;;23.10;97.10;;;;;;7376134;19;20029;-68
2021/09/06 10:14:39;;;;;;;11.48;5.00;;;22.60;96.30;;;;;;7377930;19;20060;-68
2021/09/06 10:17:04;;;;;;;9.88;4.50;;;22.60;95.80;;;;;;7377122;19;20844;-67
2021/09/06 10:19:30;;;;;;;8.80;4.70;;;22.50;97.10;;;;;;7376671;19;20019;-67
2021/09/06 10:21:56;;;;;;;12.73;5.28;;;22.60;96.90;;;;;;7375506;19;20019;-67
2021/09/06 10:24:22;;;;;;;11.60;6.00;;;22.80;96.30;;;;;;7375750;19;20804;-67
2021/09/06 10:26:48;;;;;;;9.52;5.80;;;22.90;95.60;;;;;;7378391;19;20023;-67
2021/09/06 10:29:14;;;;;;;9.95;5.15;;;22.90;95.00;;;;;;7375085;19;20071;-67
2021/09/06 10:31:42;;;;;;;8.63;4.88;;;22.90;96.20;;;;;;7377384;19;20030;-67
2021/09/06 10:34:09;;;;;;;16.55;6.55;;;23.00;95.90;;;;;;7377483;19;20022;-67
2021/09/06 10:36:37;;;;;;;11.68;5.53;;;23.10;96.60;;;;;;7375557;19;20763;-67
2021/09/06 10:39:03;;;;;;;11.38;6.35;;;22.90;96.20;;;;;;7374871;19;20015;-67
2021/09/06 10:41:30;;;;;;;11.73;6.05;;;23.00;96.80;;;;;;7374111;19;20027;-68
2021/09/06 10:43:56;;;;;;;15.43;6.85;;;23.00;96.30;;;;;;7376829;19;20022;-68
2021/09/06 10:46:23;;;;;;;11.60;6.57;;;22.90;97.10;;;;;;7373322;19;20026;-68
2021/09/06 10:48:50;;;;;;;12.52;7.13;;;23.10;97.10;;;;;;7371608;19;20071;-68
2021/09/06 10:51:16;;;;;;;13.23;7.18;;;23.40;95.30;;;;;;7376377;19;20039;-68
2021/09/06 10:53:42;;;;;;;16.58;7.50;;;23.50;95.80;;;;;;7375212;19;20848;-68
2021/09/06 10:56:07;;;;;;;21.92;10.07;;;23.50;95.90;;;;;;7376876;19;20018;-68
2021/09/06 10:58:36;;;;;;;17.48;7.50;;;23.50;94.90;;;;;;7374700;19;20108;-68
2021/09/06 11:01:04;;;;;;;17.15;7.95;;;23.30;95.30;;;;;;7374677;19;20069;-68
2021/09/06 11:03:30;;;;;;;15.43;7.95;;;23.20;96.60;;;;;;7372365;19;20023;-68
2021/09/06 11:05:56;;;;;;;15.23;6.72;;;23.40;95.70;;;;;;7370641;19;20018;-68
2021/09/06 11:08:22;;;;;;;13.88;7.20;;;23.40;96.30;;;;;;7374577;19;20046;-67
2021/09/06 11:10:48;;;;;;;14.85;6.70;;;23.80;95.10;;;;;;7375420;19;20365;-68
2021/09/06 11:13:14;;;;;;;20.77;7.78;;;23.80;95.20;;;;;;7372833;19;20029;-68
2021/09/06 11:15:40;;;;;;;14.85;8.45;;;23.60;95.70;;;;;;7375705;19;20018;-67
2021/09/06 11:18:07;;;;;;;13.13;7.70;;;23.90;93.90;;;;;;7373232;19;20029;-67
2021/09/06 11:20:34;;;;;;;17.45;8.38;;;24.20;94.90;;;;;;7375833;19;20114;-67
2021/09/06 11:23:01;;;;;;;23.33;9.00;;;24.20;94.00;;;;;;7371727;19;20089;-68
2021/09/06 11:25:28;;;;;;;13.60;7.53;;;24.30;94.80;;;;;;7375128;19;20019;-69
2021/09/06 11:27:56;;;;;;;15.18;8.25;;;24.40;94.40;;;;;;7373339;19;20046;-69
2021/09/06 11:30:22;;;;;;;15.10;7.57;;;24.60;93.40;;;;;;7372896;19;20081;-68
2021/09/06 11:32:47;;;;;;;20.77;7.70;;;24.30;93.20;;;;;;7372511;19;20107;-68
2021/09/06 11:35:13;;;;;;;18.75;7.90;;;24.20;94.50;;;;;;7372039;19;20026;-69
2021/09/06 11:37:39;;;;;;;14.52;7.65;;;24.30;93.60;;;;;;7375265;19;20086;-71
2021/09/06 11:40:04;;;;;;;28.08;8.27;;;24.40;93.00;;;;;;7375424;19;20946;-71
2021/09/06 11:42:30;;;;;;;13.15;7.28;;;25.00;93.10;;;;;;7372512;19;20018;-68
2021/09/06 11:44:57;;;;;;;14.55;7.15;;;25.50;92.10;;;;;;7375435;19;20356;-68
2021/09/06 11:47:22;;;;;;;28.52;8.30;;;25.90;92.00;;;;;;7370883;19;20026;-68
2021/09/06 11:49:48;;;;;;;14.65;7.32;;;26.10;93.20;;;;;;7375446;19;20019;-68
2021/09/06 11:52:16;;;;;;;13.27;7.30;;;26.80;90.50;;;;;;7371239;19;20014;-67
2021/09/06 11:54:42;;;;;;;15.70;8.75;;;27.30;89.50;;;;;;7374617;19;20085;-66
2021/09/06 11:57:07;;;;;;;11.00;7.22;;;27.70;89.10;;;;;;7372429;19;20026;-67
2021/09/06 11:59:33;;;;;;;14.60;7.80;;;28.10;86.90;;;;;;7372560;19;20022;-67
2021/09/06 12:01:58;;;;;;;10.55;6.78;;;27.80;86.00;;;;;;7373976;19;20022;-67
2021/09/06 12:04:23;;;;;;;14.32;6.40;;;27.80;85.90;;;;;;7372087;19;20018;-67
2021/09/06 12:06:49;;;;;;;13.68;7.55;;;27.70;84.90;;;;;;7370461;19;20078;-68
2021/09/06 12:09:15;;;;;;;15.35;7.20;;;27.20;88.70;;;;;;7373785;19;20023;-68
2021/09/06 12:11:40;;;;;;;14.88;7.53;;;27.20;87.40;;;;;;7370091;19;21024;-68
2021/09/06 12:14:09;;;;;;;14.70;7.97;;;26.60;88.20;;;;;;7372548;19;20010;-68
2021/09/06 12:16:34;;;;;;;14.02;8.27;;;26.40;89.70;;;;;;7371074;19;20033;-68
2021/09/06 12:19:00;;;;;;;18.23;9.13;;;26.60;88.40;;;;;;7372601;19;20494;-67
2021/09/06 12:21:25;;;;;;;14.35;8.40;;;26.60;86.20;;;;;;7372624;19;20022;-68
2021/09/06 12:23:51;;;;;;;16.08;8.52;;;26.40;87.70;;;;;;7368699;19;20039;-67
2021/09/06 12:26:16;;;;;;;15.00;7.82;;;26.20;88.80;;;;;;7373138;19;20035;-68
2021/09/06 12:28:42;;;;;;;17.80;8.60;;;26.00;90.50;;;;;;7369940;19;20117;-67
2021/09/06 12:31:07;;;;;;;14.75;7.85;;;26.00;90.10;;;;;;7371856;19;20018;-68
2021/09/06 12:33:33;;;;;;;13.27;7.65;;;25.80;90.30;;;;;;7370118;19;20026;-68
2021/09/06 12:35:58;;;;;;;15.25;8.00;;;25.50;90.80;;;;;;7365692;19;20834;-70
2021/09/06 12:38:24;;;;;;;15.15;7.68;;;25.40;89.00;;;;;;7369860;19;20023;-70
2021/09/06 12:40:50;;;;;;;17.15;8.60;;;25.00;91.00;;;;;;7347277;19;20031;-69
2021/09/06 12:43:15;;;;;;;14.50;7.95;;;24.80;90.40;;;;;;7368769;19;20019;-70
2021/09/06 12:45:41;;;;;;;16.83;8.20;;;24.60;91.20;;;;;;7370065;19;20031;-69
2021/09/06 12:48:07;;;;;;;16.50;8.10;;;24.50;91.40;;;;;;7368695;19;20035;-69
2021/09/06 12:50:33;;;;;;;16.33;8.10;;;24.30;91.80;;;;;;7371907;19;20026;-69
2021/09/06 12:52:59;;;;;;;13.32;8.15;;;24.30;91.40;;;;;;7367478;19;20026;-70
2021/09/06 12:55:24;;;;;;;15.98;7.75;;;24.40;92.40;;;;;;7371316;19;20048;-69
2021/09/06 12:57:50;;;;;;;14.68;7.65;;;24.60;92.00;;;;;;7365710;19;21057;-69
2021/09/06 13:00:15;;;;;;;17.23;8.65;;;24.70;91.30;;;;;;7368382;19;20026;-70
2021/09/06 13:02:41;;;;;;;15.13;8.68;;;24.60;91.30;;;;;;7343794;19;20025;-70
2021/09/06 13:05:06;;;;;;;13.32;7.70;;;24.70;90.10;;;;;;7367611;19;20108;-70
2021/09/06 13:07:32;;;;;;;17.38;7.78;;;24.60;91.20;;;;;;7370235;19;20021;-70
2021/09/06 13:09:57;;;;;;;15.63;8.10;;;24.80;91.40;;;;;;7369434;19;20557;-69
2021/09/06 13:12:23;;;;;;;15.65;7.82;;;24.80;90.00;;;;;;7368095;19;20046;-70